createdAt,value
2023-07-07T00:00:02.256Z,99798.88
2023-07-07T00:02:35.262Z,99804.16
2023-07-07T00:05:02.545Z,99803.34
2023-07-07T00:07:29.906Z,99802.59
2023-07-07T00:09:57.130Z,99800.53
2023-07-07T00:12:25.600Z,99795.72
2023-07-07T00:14:53.115Z,99799.25
2023-07-07T00:17:22.883Z,99798.44
2023-07-07T00:19:50.180Z,99796.78
2023-07-07T00:22:17.370Z,99796.78
2023-07-07T00:24:44.607Z,99791.13
2023-07-07T00:27:11.988Z,99793.59
2023-07-07T00:29:39.743Z,99792.03
2023-07-07T00:32:09.368Z,99807.31
2023-07-07T00:34:36.692Z,99801.69
2023-07-07T00:37:04.156Z,99801.34
2023-07-07T00:39:31.469Z,99796.13
2023-07-07T00:41:58.732Z,99796.56
2023-07-07T00:44:30.336Z,99803.44
2023-07-07T00:46:57.589Z,99797.09
2023-07-07T00:49:24.829Z,99793.03
2023-07-07T00:51:54.466Z,99801.50
2023-07-07T00:54:25.397Z,99801.13
2023-07-07T00:56:53.193Z,99796.38
2023-07-07T00:59:24.788Z,99796.38
2023-07-07T01:01:53.728Z,99796.47
2023-07-07T01:04:21.159Z,99793.72
2023-07-07T01:06:51.280Z,99792.50
2023-07-07T01:09:19.008Z,99784.03
2023-07-07T01:11:47.848Z,99786.84
2023-07-07T01:14:20.992Z,99787.72
2023-07-07T01:17:04.002Z,99784.19
2023-07-07T01:19:46.404Z,99781.03
2023-07-07T01:22:38.288Z,99773.06
2023-07-07T01:25:18.857Z,99771.88
2023-07-07T01:28:14.157Z,99771.97
2023-07-07T01:30:48.472Z,99779.16
2023-07-07T01:33:17.365Z,99770.38
2023-07-07T01:35:45.609Z,99778.47
2023-07-07T01:38:32.047Z,99779.34
2023-07-07T01:41:24.211Z,99769.66
2023-07-07T01:44:02.211Z,99772.13
2023-07-07T01:46:56.301Z,99775.38
2023-07-07T01:49:29.415Z,99777.81
2023-07-07T01:52:21.760Z,99785.19
2023-07-07T01:54:52.775Z,99780.34
2023-07-07T01:57:20.694Z,99788.44
2023-07-07T01:59:47.953Z,99782.44
2023-07-07T02:02:15.219Z,99784.53
2023-07-07T02:04:42.633Z,99784.59
2023-07-07T02:07:09.855Z,99784.66
2023-07-07T02:09:37.781Z,99780.28
2023-07-07T02:12:05.705Z,99783.94
2023-07-07T02:14:32.938Z,99782.78
2023-07-07T02:17:00.272Z,99785.28
2023-07-07T02:19:28.396Z,99780.56
2023-07-07T02:21:55.640Z,99784.59
2023-07-07T02:24:23.260Z,99782.66
2023-07-07T02:26:51.336Z,99781.06
2023-07-07T02:29:18.524Z,99780.28
2023-07-07T02:31:45.985Z,99777.47
2023-07-07T02:34:13.271Z,99778.69
2023-07-07T02:36:40.392Z,99781.13
2023-07-07T02:39:07.545Z,99780.75
2023-07-07T02:41:34.856Z,99773.13
2023-07-07T02:44:03.843Z,99774.78
2023-07-07T02:46:31.802Z,99777.16
2023-07-07T02:48:59.152Z,99773.13
2023-07-07T02:51:26.385Z,99775.94
2023-07-07T02:53:53.969Z,99785.19
2023-07-07T02:56:21.106Z,99778.31
2023-07-07T02:58:48.427Z,99778.31
2023-07-07T03:01:19.582Z,99781.13
2023-07-07T03:03:49.666Z,99773.56
2023-07-07T03:06:22.764Z,99771.97
2023-07-07T03:08:52.611Z,99772.47
2023-07-07T03:11:22.627Z,99766.91
2023-07-07T03:13:50.145Z,99774.63
2023-07-07T03:16:23.065Z,99774.25
2023-07-07T03:18:58.950Z,99777.13
2023-07-07T03:21:27.354Z,99776.75
2023-07-07T03:24:02.326Z,99769.53
2023-07-07T03:26:32.019Z,99773.56
2023-07-07T03:29:06.247Z,99775.53
2023-07-07T03:31:36.004Z,99775.91
2023-07-07T03:34:04.678Z,99776.63
2023-07-07T03:36:36.748Z,99770.19
2023-07-07T03:39:05.778Z,99773.47
2023-07-07T03:41:34.175Z,99769.03
2023-07-07T03:44:04.608Z,99765.03
2023-07-07T03:46:36.106Z,99767.84
2023-07-07T03:49:03.914Z,99764.56
2023-07-07T03:51:37.321Z,99762.22
2023-07-07T03:54:07.802Z,99760.97
2023-07-07T03:56:37.104Z,99758.94
2023-07-07T03:59:05.032Z,99765.38
2023-07-07T04:01:32.640Z,99761.34
2023-07-07T04:04:00.087Z,99755.72
2023-07-07T04:06:27.516Z,99754.13
2023-07-07T04:08:57.372Z,99754.13
2023-07-07T04:11:25.800Z,99756.53
2023-07-07T04:13:53.927Z,99759.75
2023-07-07T04:16:25.502Z,99755.72
2023-07-07T04:18:54.659Z,99750.97
2023-07-07T04:21:26.950Z,99750.97
2023-07-07T04:23:54.946Z,99752.56
2023-07-07T04:26:22.321Z,99748.16
2023-07-07T04:28:52.834Z,99745.28
2023-07-07T04:31:22.055Z,99744.84
2023-07-07T04:33:49.358Z,99744.41
2023-07-07T04:36:16.947Z,99738.28
2023-07-07T04:38:45.905Z,99734.97
2023-07-07T04:41:14.290Z,99736.47
2023-07-07T04:43:43.668Z,99729.53
2023-07-07T04:46:13.460Z,99737.47
2023-07-07T04:48:41.084Z,99733.72
2023-07-07T04:51:09.551Z,99744.03
2023-07-07T04:53:37.964Z,99741.09
2023-07-07T04:56:12.441Z,99737.31
2023-07-07T04:58:40.714Z,99742.44
2023-07-07T05:01:11.468Z,99735.06
2023-07-07T05:03:40.837Z,99728.50
2023-07-07T05:06:08.099Z,99738.03
2023-07-07T05:08:37.801Z,99744.75
2023-07-07T05:11:06.541Z,99739.41
2023-07-07T05:13:34.299Z,99737.66
2023-07-07T05:16:06.394Z,99731.50
2023-07-07T05:18:34.075Z,99739.88
2023-07-07T05:21:03.803Z,99732.50
2023-07-07T05:23:33.444Z,99734.44
2023-07-07T05:26:00.679Z,99734.72
2023-07-07T05:28:28.603Z,99734.63
2023-07-07T05:30:56.044Z,99734.09
2023-07-07T05:33:25.848Z,99734.81
2023-07-07T05:35:54.561Z,99734.28
2023-07-07T05:38:24.281Z,99737.38
2023-07-07T05:40:51.852Z,99727.59
2023-07-07T05:43:20.268Z,99736.25
2023-07-07T05:45:47.496Z,99728.84
2023-07-07T05:48:15.208Z,99736.78
2023-07-07T05:50:43.449Z,99730.94
2023-07-07T05:53:11.547Z,99729.19
2023-07-07T05:55:39.081Z,99730.59
2023-07-07T05:58:06.640Z,99725.09
2023-07-07T06:00:36.667Z,99726.16
2023-07-07T06:03:04.112Z,99728.44
2023-07-07T06:05:33.296Z,99730.72
2023-07-07T06:08:00.666Z,99728.97
2023-07-07T06:10:28.595Z,99731.22
2023-07-07T06:12:56.025Z,99729.44
2023-07-07T06:15:23.414Z,99726.75
2023-07-07T06:17:51.687Z,99730.97
2023-07-07T06:20:18.905Z,99725.13
2023-07-07T06:22:46.127Z,99724.91
2023-07-07T06:25:13.187Z,99725.97
2023-07-07T06:27:41.730Z,99725.75
2023-07-07T06:30:09.174Z,99717.50
2023-07-07T06:32:36.605Z,99719.00
2023-07-07T06:35:04.942Z,99715.16
2023-07-07T06:37:32.622Z,99710.97
2023-07-07T06:39:59.914Z,99722.06
2023-07-07T06:42:27.209Z,99718.09
2023-07-07T06:45:06.318Z,99717.91
2023-07-07T06:47:33.746Z,99714.53
2023-07-07T06:50:02.132Z,99718.34
2023-07-07T06:52:29.688Z,99710.91
2023-07-07T06:55:01.063Z,99711.31
2023-07-07T06:57:35.019Z,99717.97
2023-07-07T07:00:04.212Z,99711.19
2023-07-07T07:02:31.887Z,99711.31
2023-07-07T07:04:59.339Z,99712.50
2023-07-07T07:07:26.601Z,99713.72
2023-07-07T07:09:54.137Z,99714.69
2023-07-07T07:12:21.429Z,99703.72
2023-07-07T07:14:49.180Z,99704.25
2023-07-07T07:17:16.469Z,99712.16
2023-07-07T07:19:45.717Z,99712.50
2023-07-07T07:22:16.677Z,99706.84
2023-07-07T07:24:43.937Z,99705.72
2023-07-07T07:27:11.231Z,99704.78
2023-07-07T07:29:38.566Z,99704.56
2023-07-07T07:32:06.100Z,99704.19
2023-07-07T07:34:36.683Z,99697.78
2023-07-07T07:37:07.667Z,99700.81
2023-07-07T07:39:37.295Z,99698.50
2023-07-07T07:42:05.748Z,99701.53
2023-07-07T07:44:33.287Z,99696.97
2023-07-07T07:47:01.215Z,99700.59
2023-07-07T07:49:28.708Z,99702.38
2023-07-07T07:51:55.925Z,99703.34
2023-07-07T07:54:23.317Z,99707.97
2023-07-07T07:56:50.822Z,99703.28
2023-07-07T07:59:18.159Z,99696.38
2023-07-07T08:01:46.207Z,99700.91
2023-07-07T08:04:13.685Z,99700.28
2023-07-07T08:06:41.847Z,99707.06
2023-07-07T08:09:09.895Z,99696.38
2023-07-07T08:11:43.420Z,99699.50
2023-07-07T08:14:21.367Z,99700.31
2023-07-07T08:16:55.401Z,99708.47
2023-07-07T08:19:23.041Z,99705.34
2023-07-07T08:21:50.417Z,99698.06
2023-07-07T08:24:17.618Z,99702.16
2023-07-07T08:26:45.636Z,99698.72
2023-07-07T08:31:43.308Z,99695.91
2023-07-07T08:34:10.706Z,99698.47
2023-07-07T08:36:38.358Z,99699.13
2023-07-07T08:39:13.006Z,99697.59
2023-07-07T08:41:45.275Z,99696.38
2023-07-07T08:44:14.797Z,99684.75
2023-07-07T08:46:47.604Z,99680.50
2023-07-07T08:49:18.708Z,99690.44
2023-07-07T08:51:59.744Z,99679.41
2023-07-07T08:54:43.021Z,99690.75
2023-07-07T08:57:11.955Z,99683.66
2023-07-07T09:00:00.943Z,99683.66
2023-07-07T09:03:07.341Z,99681.59
2023-07-07T09:05:51.031Z,99674.19
2023-07-07T09:08:30.389Z,99666.19
2023-07-07T09:11:38.223Z,99676.09
2023-07-07T09:14:06.845Z,99667.31
2023-07-07T09:16:36.189Z,99670.00
2023-07-07T09:19:06.327Z,99665.94
2023-07-07T09:21:42.460Z,99661.84
2023-07-07T09:24:29.898Z,99654.56
2023-07-07T09:26:59.682Z,99652.84
2023-07-07T09:29:30.670Z,99650.78
2023-07-07T09:32:00.400Z,99643.81
2023-07-07T09:34:27.892Z,99646.38
2023-07-07T09:37:07.277Z,99639.75
2023-07-07T09:40:09.016Z,99642.25
2023-07-07T09:43:05.574Z,99629.94
2023-07-07T09:46:00.147Z,99634.69
2023-07-07T09:48:47.591Z,99626.78
2023-07-07T09:51:24.073Z,99622.84
2023-07-07T09:53:51.182Z,99628.53
2023-07-07T09:56:21.522Z,99623.66
2023-07-07T09:58:59.248Z,99622.53
2023-07-07T10:01:29.796Z,99618.28
2023-07-07T10:03:57.060Z,99614.50
2023-07-07T10:06:37.481Z,99610.56
2023-07-07T10:09:05.484Z,99602.53
2023-07-07T10:14:08.615Z,99608.38
2023-07-07T10:16:44.652Z,99609.94
2023-07-07T10:19:14.040Z,99602.69
2023-07-07T10:21:41.154Z,99606.63
2023-07-07T10:24:13.217Z,99605.53
2023-07-07T10:26:43.758Z,99609.13
2023-07-07T10:29:13.135Z,99606.28
2023-07-07T10:31:43.914Z,99610.72
2023-07-07T10:34:28.344Z,99601.09
2023-07-07T10:36:56.233Z,99602.22
2023-07-07T10:39:32.716Z,99595.88
2023-07-07T10:41:59.968Z,99586.41
2023-07-07T10:44:27.973Z,99587.63
2023-07-07T10:46:55.218Z,99589.84
2023-07-07T10:49:25.746Z,99588.56
2023-07-07T10:52:16.289Z,99593.94
2023-07-07T10:55:06.385Z,99589.47
2023-07-07T10:57:48.450Z,99583.72
2023-07-07T11:03:51.166Z,99566.00
2023-07-07T11:06:34.415Z,99571.47
2023-07-07T11:09:20.239Z,99558.97
2023-07-07T11:11:51.485Z,99564.41
2023-07-07T11:14:48.514Z,99561.22
2023-07-07T11:17:22.297Z,99554.84
2023-07-07T11:20:05.821Z,99551.41
2023-07-07T11:22:47.932Z,99556.69
2023-07-07T11:25:15.429Z,99550.19
2023-07-07T11:28:04.304Z,99555.19
2023-07-07T11:31:12.734Z,99555.88
2023-07-07T11:33:58.544Z,99556.22
2023-07-07T11:36:34.622Z,99556.41
2023-07-07T11:39:08.425Z,99560.09
2023-07-07T11:41:42.184Z,99559.63
2023-07-07T11:44:38.696Z,99562.13
2023-07-07T11:47:16.268Z,99552.84
2023-07-07T11:50:05.807Z,99558.41
2023-07-07T11:52:46.895Z,99554.31
2023-07-07T11:55:23.365Z,99560.03
2023-07-07T11:57:53.860Z,99544.13
2023-07-07T12:00:27.830Z,99535.44
2023-07-07T12:03:37.200Z,99544.03
2023-07-07T12:06:25.460Z,99529.16
2023-07-07T12:09:08.204Z,99527.53
2023-07-07T12:11:40.019Z,99525.59
2023-07-07T12:14:23.657Z,99516.66
2023-07-07T12:16:51.053Z,99519.06
2023-07-07T12:19:43.023Z,99519.25
2023-07-07T12:22:16.957Z,99520.97
2023-07-07T12:24:49.795Z,99519.56
2023-07-07T12:27:27.172Z,99516.94
2023-07-07T12:29:54.779Z,99503.19
2023-07-07T12:32:24.644Z,99503.66
2023-07-07T12:35:16.192Z,99507.91
2023-07-07T12:37:44.266Z,99504.16
2023-07-07T12:40:12.593Z,99509.28
2023-07-07T12:42:41.824Z,99501.41
2023-07-07T12:45:24.814Z,99495.88
2023-07-07T12:47:57.293Z,99481.25
2023-07-07T12:50:39.614Z,99482.66
2023-07-07T12:53:24.248Z,99486.19
2023-07-07T12:56:14.228Z,99487.06
2023-07-07T12:58:48.895Z,99478.47
2023-07-07T13:01:16.947Z,99468.44
2023-07-07T13:04:09.152Z,99470.59
2023-07-07T13:06:40.984Z,99463.38
2023-07-07T13:09:14.523Z,99456.88
2023-07-07T13:11:46.931Z,99461.31
2023-07-07T13:14:40.829Z,99455.59
2023-07-07T13:17:12.950Z,99447.88
2023-07-07T13:19:44.931Z,99442.53
2023-07-07T13:22:17.772Z,99448.03
2023-07-07T13:24:45.968Z,99442.63
2023-07-07T13:27:24.093Z,99444.03
2023-07-07T13:30:00.540Z,99441.75
2023-07-07T13:32:29.438Z,99442.31
2023-07-07T13:34:59.925Z,99442.91
2023-07-07T13:37:28.454Z,99429.22
2023-07-07T13:39:57.389Z,99440.19
2023-07-07T13:42:32.511Z,99435.34
2023-07-07T13:45:05.293Z,99432.75
2023-07-07T13:47:33.604Z,99443.38
2023-07-07T13:50:03.098Z,99446.75
2023-07-07T13:52:33.401Z,99442.59
2023-07-07T13:55:00.916Z,99445.72
2023-07-07T13:57:30.807Z,99436.66
2023-07-07T13:59:58.957Z,99440.03
2023-07-07T14:02:26.706Z,99440.03
2023-07-07T14:05:07.327Z,99438.69
2023-07-07T14:07:39.061Z,99434.78
2023-07-07T14:10:29.072Z,99443.03
2023-07-07T14:12:56.799Z,99432.19
2023-07-07T14:15:33.120Z,99426.78
2023-07-07T14:18:03.523Z,99437.16
2023-07-07T14:20:36.884Z,99439.03
2023-07-07T14:23:04.424Z,99435.38
2023-07-07T14:25:31.672Z,99432.31
2023-07-07T14:27:59.246Z,99429.16
2023-07-07T14:30:26.977Z,99426.31
2023-07-07T14:32:55.694Z,99419.09
2023-07-07T14:35:30.361Z,99413.41
2023-07-07T14:37:59.586Z,99414.16
2023-07-07T14:40:34.766Z,99414.16
2023-07-07T14:43:03.960Z,99416.75
2023-07-07T14:45:34.762Z,99398.81
2023-07-07T14:48:03.981Z,99399.06
2023-07-07T14:50:31.818Z,99400.06
2023-07-07T14:52:59.688Z,99396.16
2023-07-07T14:55:29.414Z,99402.34
2023-07-07T14:57:58.789Z,99397.38
2023-07-07T15:00:30.595Z,99393.47
2023-07-07T15:02:58.095Z,99392.13
2023-07-07T15:05:30.030Z,99394.09
2023-07-07T15:08:30.587Z,99393.97
2023-07-07T15:11:07.614Z,99394.97
2023-07-07T15:13:35.086Z,99399.31
2023-07-07T15:16:05.552Z,99390.72
2023-07-07T15:18:34.125Z,99394.97
2023-07-07T15:21:01.476Z,99390.00
2023-07-07T15:23:31.008Z,99387.88
2023-07-07T15:26:00.109Z,99401.81
2023-07-07T15:28:27.828Z,99392.97
2023-07-07T15:30:55.697Z,99383.56
2023-07-07T15:33:24.545Z,99381.63
2023-07-07T15:35:52.578Z,99384.03
2023-07-07T15:38:45.689Z,99381.53
2023-07-07T15:41:17.570Z,99382.34
2023-07-07T15:43:45.872Z,99380.91
2023-07-07T15:46:20.899Z,99388.88
2023-07-07T15:48:50.285Z,99386.72
2023-07-07T15:51:38.285Z,99391.84
2023-07-07T15:54:15.706Z,99388.41
2023-07-07T15:56:44.507Z,99387.34
2023-07-07T15:59:18.563Z,99383.69
2023-07-07T16:01:46.169Z,99382.13
2023-07-07T16:04:14.454Z,99393.22
2023-07-07T16:06:42.832Z,99395.47
2023-07-07T16:09:15.674Z,99397.72
2023-07-07T16:11:43.918Z,99392.69
2023-07-07T16:14:11.939Z,99404.19
2023-07-07T16:16:40.176Z,99411.25
2023-07-07T16:19:16.434Z,99402.53
2023-07-07T16:21:44.371Z,99402.59
2023-07-07T16:24:11.792Z,99402.38
2023-07-07T16:26:40.562Z,99395.22
2023-07-07T16:29:26.673Z,99401.94
2023-07-07T16:31:54.112Z,99398.22
2023-07-07T16:34:21.365Z,99405.84
2023-07-07T16:36:48.574Z,99409.03
2023-07-07T16:39:17.237Z,99407.16
2023-07-07T16:41:44.470Z,99408.50
2023-07-07T16:44:11.718Z,99400.50
2023-07-07T16:46:39.274Z,99406.25
2023-07-07T16:49:13.175Z,99410.91
2023-07-07T16:51:41.250Z,99413.16
2023-07-07T16:54:09.146Z,99416.19
2023-07-07T16:56:37.814Z,99417.50
2023-07-07T16:59:12.698Z,99429.19
2023-07-07T17:01:40.058Z,99421.53
2023-07-07T17:04:07.601Z,99426.88
2023-07-07T17:06:36.029Z,99430.19
2023-07-07T17:09:12.887Z,99436.41
2023-07-07T17:11:41.264Z,99434.81
2023-07-07T17:14:08.539Z,99438.28
2023-07-07T17:16:36.760Z,99435.47
2023-07-07T17:19:19.672Z,99433.25
2023-07-07T17:21:46.969Z,99428.50
2023-07-07T17:24:14.863Z,99422.22
2023-07-07T17:26:43.416Z,99420.00
2023-07-07T17:29:14.988Z,99408.03
2023-07-07T17:31:42.609Z,99409.94
2023-07-07T17:34:09.891Z,99412.16
2023-07-07T17:36:37.942Z,99417.66
2023-07-07T17:39:08.079Z,99423.50
2023-07-07T17:41:36.646Z,99421.59
2023-07-07T17:44:03.829Z,99416.88
2023-07-07T17:46:33.118Z,99422.22
2023-07-07T17:49:02.056Z,99426.47
2023-07-07T17:51:29.937Z,99425.00
2023-07-07T17:53:58.334Z,99428.94
2023-07-07T17:56:27.308Z,99433.19
2023-07-07T17:58:54.870Z,99427.34
2023-07-07T18:01:22.591Z,99429.09
2023-07-07T18:03:49.993Z,99429.22
2023-07-07T18:06:21.124Z,99440.69
2023-07-07T18:08:51.243Z,99431.09
2023-07-07T18:11:26.695Z,99424.03
2023-07-07T18:13:55.569Z,99421.78
2023-07-07T18:16:25.066Z,99422.72
2023-07-07T18:19:19.053Z,99413.25
2023-07-07T18:21:52.332Z,99422.03
2023-07-07T18:24:24.155Z,99415.38
2023-07-07T18:26:53.246Z,99413.16
2023-07-07T18:29:23.479Z,99419.13
2023-07-07T18:31:50.897Z,99412.81
2023-07-07T18:34:18.420Z,99413.75
2023-07-07T18:36:48.602Z,99411.84
2023-07-07T18:39:19.271Z,99409.63
2023-07-07T18:41:46.700Z,99418.41
2023-07-07T18:44:14.067Z,99410.97
2023-07-07T18:46:42.553Z,99399.31
2023-07-07T18:49:13.409Z,99406.22
2023-07-07T18:51:44.117Z,99407.59
2023-07-07T18:54:11.979Z,99411.03
2023-07-07T18:56:41.539Z,99400.66
2023-07-07T18:59:14.195Z,99407.38
2023-07-07T19:01:42.076Z,99418.50
2023-07-07T19:04:09.312Z,99414.19
2023-07-07T19:06:38.377Z,99411.19
2023-07-07T19:09:19.464Z,99410.19
2023-07-07T19:11:50.764Z,99410.81
2023-07-07T19:14:18.482Z,99403.69
2023-07-07T19:16:46.067Z,99405.41
2023-07-07T19:19:22.321Z,99400.22
2023-07-07T19:21:49.867Z,99415.25
2023-07-07T19:24:17.398Z,99411.28
2023-07-07T19:26:48.045Z,99403.41
2023-07-07T19:29:15.615Z,99401.19
2023-07-07T19:31:44.199Z,99402.09
2023-07-07T19:34:13.105Z,99395.41
2023-07-07T19:36:44.141Z,99390.72
2023-07-07T19:39:18.930Z,99409.97
2023-07-07T19:41:47.060Z,99400.91
2023-07-07T19:44:14.830Z,99422.41
2023-07-07T19:46:43.136Z,99416.88
2023-07-07T19:49:30.892Z,99423.66
2023-07-07T19:51:58.367Z,99414.16
2023-07-07T19:54:26.042Z,99420.06
2023-07-07T19:56:55.318Z,99420.66
2023-07-07T19:59:22.740Z,99414.34
2023-07-07T20:01:49.982Z,99405.19
2023-07-07T20:04:18.950Z,99404.97
2023-07-07T20:06:47.133Z,99406.31
2023-07-07T20:09:21.614Z,99400.03
2023-07-07T20:11:49.834Z,99391.78
2023-07-07T20:14:17.063Z,99392.34
2023-07-07T20:16:46.811Z,99392.88
2023-07-07T20:19:15.156Z,99378.09
2023-07-07T20:21:42.882Z,99386.66
2023-07-07T20:24:30.510Z,99370.31
2023-07-07T20:27:04.220Z,99369.19
2023-07-07T20:29:32.674Z,99356.00
2023-07-07T20:31:59.969Z,99357.66
2023-07-07T20:34:27.678Z,99354.22
2023-07-07T20:36:55.048Z,99346.63
2023-07-07T20:39:23.310Z,99345.97
2023-07-07T20:41:51.149Z,99346.97
2023-07-07T20:44:18.436Z,99344.59
2023-07-07T20:46:46.557Z,99356.00
2023-07-07T20:49:19.271Z,99356.13
2023-07-07T20:51:47.176Z,99351.81
2023-07-07T20:54:14.347Z,99355.53
2023-07-07T20:56:41.496Z,99358.78
2023-07-07T20:59:25.054Z,99360.13
2023-07-07T21:01:57.655Z,99354.22
2023-07-07T21:04:25.598Z,99366.31
2023-07-07T21:06:53.344Z,99355.91
2023-07-07T21:09:21.146Z,99364.81
2023-07-07T21:11:49.334Z,99360.88
2023-07-07T21:14:16.587Z,99366.19
2023-07-07T21:16:46.907Z,99373.06
2023-07-07T21:19:14.832Z,99372.69
2023-07-07T21:21:42.220Z,99393.22
2023-07-07T21:24:09.569Z,99397.72
2023-07-07T21:26:36.932Z,99403.13
2023-07-07T21:29:11.951Z,99406.81
2023-07-07T21:31:40.554Z,99389.66
2023-07-07T21:34:09.118Z,99408.16
2023-07-07T21:36:38.448Z,99394.41
2023-07-07T21:39:24.664Z,99386.84
2023-07-07T21:42:02.605Z,99399.72
2023-07-07T21:44:33.846Z,99390.91
2023-07-07T21:47:01.332Z,99394.16
2023-07-07T21:49:28.530Z,99407.47
2023-07-07T21:51:56.216Z,99414.69
2023-07-07T21:54:23.390Z,99415.94
2023-07-07T21:56:50.487Z,99417.59
2023-07-07T21:59:19.305Z,99407.66
2023-07-07T22:01:48.512Z,99411.72
2023-07-07T22:04:16.158Z,99414.28
2023-07-07T22:06:43.955Z,99420.03
2023-07-07T22:09:17.494Z,99420.91
2023-07-07T22:11:45.026Z,99413.41
2023-07-07T22:14:12.773Z,99414.75
2023-07-07T22:16:40.066Z,99418.97
2023-07-07T22:19:15.569Z,99417.47
2023-07-07T22:21:42.779Z,99422.41
2023-07-07T22:24:10.232Z,99421.81
2023-07-07T22:26:38.034Z,99423.91
2023-07-07T22:29:05.090Z,99426.66
2023-07-07T22:31:32.329Z,99428.84
2023-07-07T22:33:59.670Z,99441.09
2023-07-07T22:36:27.827Z,99442.69
2023-07-07T22:38:55.025Z,99442.59
2023-07-07T22:41:27.072Z,99446.16
2023-07-07T22:43:54.212Z,99441.53
2023-07-07T22:46:32.458Z,99453.25
2023-07-07T22:48:59.666Z,99453.06
2023-07-07T22:51:27.038Z,99441.94
2023-07-07T22:53:54.842Z,99434.84
2023-07-07T22:56:30.322Z,99447.94
2023-07-07T22:58:58.056Z,99445.72
2023-07-07T23:01:25.916Z,99444.28
2023-07-07T23:03:57.586Z,99437.63
2023-07-07T23:06:24.963Z,99438.91
2023-07-07T23:08:58.716Z,99438.19
2023-07-07T23:11:26.530Z,99438.22
2023-07-07T23:13:58.000Z,99448.78
2023-07-07T23:16:26.423Z,99449.78
2023-07-07T23:18:54.362Z,99454.00
2023-07-07T23:21:22.005Z,99442.88
2023-07-07T23:23:49.462Z,99441.38
2023-07-07T23:26:21.024Z,99444.66
2023-07-07T23:28:48.839Z,99443.91
2023-07-07T23:31:17.867Z,99462.44
2023-07-07T23:33:45.738Z,99462.16
2023-07-07T23:36:17.650Z,99463.47
2023-07-07T23:38:45.581Z,99462.72
2023-07-07T23:41:13.471Z,99474.34
2023-07-07T23:43:40.905Z,99465.94
2023-07-07T23:46:12.719Z,99468.91
2023-07-07T23:48:40.507Z,99467.81
2023-07-07T23:51:10.850Z,99474.25
2023-07-07T23:53:39.680Z,99470.75
2023-07-07T23:56:12.336Z,99479.16
2023-07-07T23:58:39.812Z,99480.78
